sensor_id;sensor_type;location;lat;lon;timestamp;P1;durP1;ratioP1;P2;durP2;ratioP2
14734;SDS011;7458;49.002;8.472;2023-08-12T00:01:42;1203.35;;;754.25;;
14734;SDS011;7458;49.002;8.472;2023-08-12T00:04:08;1201.50;;;770.80;;
14734;SDS011;7458;49.002;8.472;2023-08-12T00:06:34;1148.80;;;772.17;;
14734;SDS011;7458;49.002;8.472;2023-08-12T00:08:59;1204.22;;;762.53;;
14734;SDS011;7458;49.002;8.472;2023-08-12T00:11:25;1146.60;;;846.53;;
14734;SDS011;7458;49.002;8.472;2023-08-12T00:13:51;1204.55;;;755.47;;
14734;SDS011;7458;49.002;8.472;2023-08-12T00:16:16;1131.40;;;822.45;;
14734;SDS011;7458;49.002;8.472;2023-08-12T00:18:42;1194.30;;;772.90;;
14734;SDS011;7458;49.002;8.472;2023-08-12T00:21:08;1123.15;;;852.03;;
14734;SDS011;7458;49.002;8.472;2023-08-12T00:23:37;1184.63;;;777.05;;
14734;SDS011;7458;49.002;8.472;2023-08-12T00:26:09;1137.43;;;833.30;;
14734;SDS011;7458;49.002;8.472;2023-08-12T00:28:35;1177.38;;;779.67;;
14734;SDS011;7458;49.002;8.472;2023-08-12T00:31:02;1124.32;;;854.42;;
14734;SDS011;7458;49.002;8.472;2023-08-12T00:33:28;1184.13;;;787.13;;
14734;SDS011;7458;49.002;8.472;2023-08-12T00:35:54;1137.32;;;848.28;;
14734;SDS011;7458;49.002;8.472;2023-08-12T00:38:19;1131.45;;;849.80;;
14734;SDS011;7458;49.002;8.472;2023-08-12T00:40:46;1104.75;;;837.78;;
14734;SDS011;7458;49.002;8.472;2023-08-12T00:43:11;1120.15;;;853.95;;
14734;SDS011;7458;49.002;8.472;2023-08-12T00:45:37;1048.40;;;857.88;;
14734;SDS011;7458;49.002;8.472;2023-08-12T00:48:04;1156.00;;;771.03;;
14734;SDS011;7458;49.002;8.472;2023-08-12T00:50:31;1126.28;;;826.25;;
14734;SDS011;7458;49.002;8.472;2023-08-12T00:52:57;1091.78;;;876.90;;
14734;SDS011;7458;49.002;8.472;2023-08-12T00:55:24;1097.32;;;857.15;;
14734;SDS011;7458;49.002;8.472;2023-08-12T00:57:50;1149.95;;;778.85;;
14734;SDS011;7458;49.002;8.472;2023-08-12T01:00:16;1102.40;;;842.33;;
14734;SDS011;7458;49.002;8.472;2023-08-12T01:02:47;1155.35;;;797.17;;
14734;SDS011;7458;49.002;8.472;2023-08-12T01:05:17;1096.45;;;860.80;;
14734;SDS011;7458;49.002;8.472;2023-08-12T01:07:44;1148.00;;;786.10;;
14734;SDS011;7458;49.002;8.472;2023-08-12T01:10:11;1154.78;;;786.70;;
14734;SDS011;7458;49.002;8.472;2023-08-12T01:12:47;1069.32;;;809.50;;
14734;SDS011;7458;49.002;8.472;2023-08-12T01:15:29;1146.43;;;800.67;;
14734;SDS011;7458;49.002;8.472;2023-08-12T01:17:56;1101.63;;;858.90;;
14734;SDS011;7458;49.002;8.472;2023-08-12T01:20:25;1111.85;;;849.95;;
14734;SDS011;7458;49.002;8.472;2023-08-12T01:22:52;1112.38;;;840.92;;
14734;SDS011;7458;49.002;8.472;2023-08-12T01:25:33;1112.13;;;856.72;;
14734;SDS011;7458;49.002;8.472;2023-08-12T01:27:59;1154.85;;;779.58;;
14734;SDS011;7458;49.002;8.472;2023-08-12T01:30:25;1149.20;;;786.78;;
14734;SDS011;7458;49.002;8.472;2023-08-12T01:32:56;1094.10;;;856.97;;
14734;SDS011;7458;49.002;8.472;2023-08-12T01:35:40;1086.05;;;839.05;;
14734;SDS011;7458;49.002;8.472;2023-08-12T01:38:15;1084.32;;;854.58;;
14734;SDS011;7458;49.002;8.472;2023-08-12T01:40:43;1140.25;;;793.95;;
14734;SDS011;7458;49.002;8.472;2023-08-12T01:43:11;1073.57;;;846.15;;
14734;SDS011;7458;49.002;8.472;2023-08-12T01:45:37;1137.60;;;781.38;;
14734;SDS011;7458;49.002;8.472;2023-08-12T01:48:04;1089.22;;;848.65;;
14734;SDS011;7458;49.002;8.472;2023-08-12T01:50:30;1162.70;;;794.15;;
14734;SDS011;7458;49.002;8.472;2023-08-12T01:52:56;1167.47;;;792.78;;
14734;SDS011;7458;49.002;8.472;2023-08-12T01:55:23;1176.35;;;785.55;;
14734;SDS011;7458;49.002;8.472;2023-08-12T01:57:50;1115.63;;;844.30;;
14734;SDS011;7458;49.002;8.472;2023-08-12T02:00:15;1157.97;;;790.83;;
14734;SDS011;7458;49.002;8.472;2023-08-12T02:02:41;1108.93;;;854.20;;
14734;SDS011;7458;49.002;8.472;2023-08-12T02:05:07;1099.72;;;856.08;;
14734;SDS011;7458;49.002;8.472;2023-08-12T02:07:33;1173.35;;;790.45;;
14734;SDS011;7458;49.002;8.472;2023-08-12T02:09:59;1096.85;;;839.70;;
14734;SDS011;7458;49.002;8.472;2023-08-12T02:12:24;1153.03;;;839.00;;
14734;SDS011;7458;49.002;8.472;2023-08-12T02:14:51;1148.97;;;784.75;;
14734;SDS011;7458;49.002;8.472;2023-08-12T02:17:17;1154.57;;;792.53;;
14734;SDS011;7458;49.002;8.472;2023-08-12T02:19:43;1144.22;;;777.63;;
14734;SDS011;7458;49.002;8.472;2023-08-12T02:22:09;1098.28;;;835.22;;
14734;SDS011;7458;49.002;8.472;2023-08-12T02:24:35;1072.78;;;854.90;;
14734;SDS011;7458;49.002;8.472;2023-08-12T02:27:01;1104.90;;;850.47;;
14734;SDS011;7458;49.002;8.472;2023-08-12T02:29:28;1102.70;;;860.08;;
14734;SDS011;7458;49.002;8.472;2023-08-12T02:31:54;1139.50;;;794.47;;
14734;SDS011;7458;49.002;8.472;2023-08-12T02:34:20;1085.22;;;846.05;;
14734;SDS011;7458;49.002;8.472;2023-08-12T02:36:46;1132.88;;;794.90;;
14734;SDS011;7458;49.002;8.472;2023-08-12T02:39:12;1099.57;;;852.45;;
14734;SDS011;7458;49.002;8.472;2023-08-12T02:41:38;1126.95;;;796.33;;
14734;SDS011;7458;49.002;8.472;2023-08-12T02:44:05;1112.85;;;854.13;;
14734;SDS011;7458;49.002;8.472;2023-08-12T02:46:31;1114.40;;;830.58;;
14734;SDS011;7458;49.002;8.472;2023-08-12T02:48:57;1169.40;;;782.15;;
14734;SDS011;7458;49.002;8.472;2023-08-12T02:51:23;1097.43;;;847.42;;
14734;SDS011;7458;49.002;8.472;2023-08-12T02:53:52;1112.32;;;852.33;;
14734;SDS011;7458;49.002;8.472;2023-08-12T02:56:18;1122.97;;;841.03;;
14734;SDS011;7458;49.002;8.472;2023-08-12T02:58:44;1110.10;;;842.50;;
14734;SDS011;7458;49.002;8.472;2023-08-12T03:01:10;1163.95;;;787.65;;
14734;SDS011;7458;49.002;8.472;2023-08-12T03:03:36;1114.10;;;791.03;;
14734;SDS011;7458;49.002;8.472;2023-08-12T03:06:02;1065.85;;;854.53;;
14734;SDS011;7458;49.002;8.472;2023-08-12T03:08:28;1078.05;;;969.63;;
14734;SDS011;7458;49.002;8.472;2023-08-12T03:10:58;1139.13;;;786.60;;
14734;SDS011;7458;49.002;8.472;2023-08-12T03:13:25;1079.80;;;838.25;;
14734;SDS011;7458;49.002;8.472;2023-08-12T03:15:52;1081.10;;;855.72;;
14734;SDS011;7458;49.002;8.472;2023-08-12T03:18:18;1142.85;;;784.67;;
14734;SDS011;7458;49.002;8.472;2023-08-12T03:20:44;1131.45;;;779.72;;
14734;SDS011;7458;49.002;8.472;2023-08-12T03:23:10;1128.22;;;785.03;;
14734;SDS011;7458;49.002;8.472;2023-08-12T03:25:36;1053.18;;;836.60;;
14734;SDS011;7458;49.002;8.472;2023-08-12T03:28:02;1114.55;;;789.50;;
14734;SDS011;7458;49.002;8.472;2023-08-12T03:30:28;1068.82;;;829.13;;
14734;SDS011;7458;49.002;8.472;2023-08-12T03:32:55;1112.28;;;794.92;;
14734;SDS011;7458;49.002;8.472;2023-08-12T03:35:22;1117.97;;;795.42;;
14734;SDS011;7458;49.002;8.472;2023-08-12T03:37:48;1064.20;;;840.22;;
14734;SDS011;7458;49.002;8.472;2023-08-12T03:40:16;1120.78;;;795.28;;
14734;SDS011;7458;49.002;8.472;2023-08-12T03:42:42;1102.10;;;794.38;;
14734;SDS011;7458;49.002;8.472;2023-08-12T03:45:08;1047.78;;;858.50;;
14734;SDS011;7458;49.002;8.472;2023-08-12T03:47:34;1069.18;;;861.80;;
14734;SDS011;7458;49.002;8.472;2023-08-12T03:50:01;1100.75;;;851.13;;
14734;SDS011;7458;49.002;8.472;2023-08-12T03:52:27;1124.53;;;785.35;;
14734;SDS011;7458;49.002;8.472;2023-08-12T03:54:53;1058.63;;;853.33;;
14734;SDS011;7458;49.002;8.472;2023-08-12T03:57:19;1091.30;;;862.50;;
14734;SDS011;7458;49.002;8.472;2023-08-12T03:59:45;1079.45;;;844.60;;
14734;SDS011;7458;49.002;8.472;2023-08-12T04:02:11;1121.40;;;801.83;;
14734;SDS011;7458;49.002;8.472;2023-08-12T04:04:37;1114.05;;;796.35;;
14734;SDS011;7458;49.002;8.472;2023-08-12T04:07:03;1072.50;;;837.75;;
14734;SDS011;7458;49.002;8.472;2023-08-12T04:09:30;1068.28;;;843.78;;
14734;SDS011;7458;49.002;8.472;2023-08-12T04:11:56;1111.57;;;792.22;;
14734;SDS011;7458;49.002;8.472;2023-08-12T04:14:22;1076.13;;;850.60;;
14734;SDS011;7458;49.002;8.472;2023-08-12T04:16:48;1123.85;;;793.88;;
14734;SDS011;7458;49.002;8.472;2023-08-12T04:19:14;1068.13;;;851.47;;
14734;SDS011;7458;49.002;8.472;2023-08-12T04:21:40;1066.05;;;843.38;;
14734;SDS011;7458;49.002;8.472;2023-08-12T04:24:11;1070.53;;;833.40;;
14734;SDS011;7458;49.002;8.472;2023-08-12T04:26:37;1117.30;;;787.20;;
14734;SDS011;7458;49.002;8.472;2023-08-12T04:29:04;1075.43;;;860.80;;
14734;SDS011;7458;49.002;8.472;2023-08-12T04:31:30;1128.68;;;794.45;;
14734;SDS011;7458;49.002;8.472;2023-08-12T04:33:56;1109.82;;;810.42;;
14734;SDS011;7458;49.002;8.472;2023-08-12T04:36:23;1142.30;;;796.42;;
14734;SDS011;7458;49.002;8.472;2023-08-12T04:38:49;1135.45;;;791.55;;
14734;SDS011;7458;49.002;8.472;2023-08-12T04:41:15;1145.45;;;794.08;;
14734;SDS011;7458;49.002;8.472;2023-08-12T04:43:41;1131.05;;;782.97;;
14734;SDS011;7458;49.002;8.472;2023-08-12T04:46:07;1131.78;;;788.78;;
14734;SDS011;7458;49.002;8.472;2023-08-12T04:48:33;1077.43;;;858.15;;
14734;SDS011;7458;49.002;8.472;2023-08-12T04:51:00;1129.47;;;780.20;;
14734;SDS011;7458;49.002;8.472;2023-08-12T04:53:28;1076.72;;;846.75;;
14734;SDS011;7458;49.002;8.472;2023-08-12T04:55:55;1144.60;;;796.03;;
14734;SDS011;7458;49.002;8.472;2023-08-12T04:58:21;1145.80;;;781.38;;
14734;SDS011;7458;49.002;8.472;2023-08-12T05:00:47;1085.60;;;865.35;;
14734;SDS011;7458;49.002;8.472;2023-08-12T05:03:14;1149.82;;;795.67;;
14734;SDS011;7458;49.002;8.472;2023-08-12T05:05:40;1141.13;;;793.58;;
14734;SDS011;7458;49.002;8.472;2023-08-12T05:08:06;1131.55;;;785.72;;
14734;SDS011;7458;49.002;8.472;2023-08-12T05:10:32;1134.60;;;788.38;;
14734;SDS011;7458;49.002;8.472;2023-08-12T05:12:58;1128.75;;;791.55;;
14734;SDS011;7458;49.002;8.472;2023-08-12T05:15:24;1167.00;;;800.63;;
14734;SDS011;7458;49.002;8.472;2023-08-12T05:17:50;1121.95;;;861.53;;
14734;SDS011;7458;49.002;8.472;2023-08-12T05:20:15;1193.13;;;765.00;;
14734;SDS011;7458;49.002;8.472;2023-08-12T05:22:41;1153.78;;;898.40;;
14734;SDS011;7458;49.002;8.472;2023-08-12T05:25:07;1186.40;;;999.90;;
14734;SDS011;7458;49.002;8.472;2023-08-12T05:27:33;1180.47;;;998.25;;
14734;SDS011;7458;49.002;8.472;2023-08-12T05:29:59;1138.50;;;840.67;;
14734;SDS011;7458;49.002;8.472;2023-08-12T05:32:24;1206.47;;;780.17;;
14734;SDS011;7458;49.002;8.472;2023-08-12T05:34:52;1093.25;;;832.45;;
14734;SDS011;7458;49.002;8.472;2023-08-12T05:37:20;1104.85;;;844.88;;
14734;SDS011;7458;49.002;8.472;2023-08-12T05:39:46;1115.68;;;861.85;;
14734;SDS011;7458;49.002;8.472;2023-08-12T05:42:12;1171.18;;;799.92;;
14734;SDS011;7458;49.002;8.472;2023-08-12T05:44:40;1198.82;;;768.35;;
14734;SDS011;7458;49.002;8.472;2023-08-12T05:47:06;1136.47;;;821.78;;
14734;SDS011;7458;49.002;8.472;2023-08-12T05:49:32;1196.85;;;769.13;;
14734;SDS011;7458;49.002;8.472;2023-08-12T05:51:57;1225.82;;;823.80;;
14734;SDS011;7458;49.002;8.472;2023-08-12T05:54:23;1200.68;;;760.22;;
14734;SDS011;7458;49.002;8.472;2023-08-12T05:56:49;1151.55;;;865.00;;
14734;SDS011;7458;49.002;8.472;2023-08-12T05:59:15;1204.65;;;771.90;;
14734;SDS011;7458;49.002;8.472;2023-08-12T06:01:40;1137.75;;;825.15;;
14734;SDS011;7458;49.002;8.472;2023-08-12T06:04:06;1227.65;;;838.70;;
14734;SDS011;7458;49.002;8.472;2023-08-12T06:06:32;1186.10;;;995.00;;
14734;SDS011;7458;49.002;8.472;2023-08-12T06:08:58;1234.40;;;897.50;;
14734;SDS011;7458;49.002;8.472;2023-08-12T06:11:24;1169.35;;;900.22;;
14734;SDS011;7458;49.002;8.472;2023-08-12T06:13:49;1170.70;;;923.95;;
14734;SDS011;7458;49.002;8.472;2023-08-12T06:16:15;1225.25;;;999.90;;
14734;SDS011;7458;49.002;8.472;2023-08-12T06:18:41;1220.38;;;999.90;;
14734;SDS011;7458;49.002;8.472;2023-08-12T06:21:07;1253.78;;;999.90;;
14734;SDS011;7458;49.002;8.472;2023-08-12T06:23:32;1221.43;;;999.90;;
14734;SDS011;7458;49.002;8.472;2023-08-12T06:25:58;1235.70;;;924.53;;
14734;SDS011;7458;49.002;8.472;2023-08-12T06:28:24;1232.13;;;938.72;;
14734;SDS011;7458;49.002;8.472;2023-08-12T06:30:53;1228.25;;;844.83;;
14734;SDS011;7458;49.002;8.472;2023-08-12T06:33:18;1231.38;;;894.55;;
14734;SDS011;7458;49.002;8.472;2023-08-12T06:35:44;1176.57;;;925.30;;
14734;SDS011;7458;49.002;8.472;2023-08-12T06:38:10;1231.88;;;869.53;;
14734;SDS011;7458;49.002;8.472;2023-08-12T06:40:38;1223.00;;;797.58;;
14734;SDS011;7458;49.002;8.472;2023-08-12T06:43:03;1226.47;;;894.47;;
14734;SDS011;7458;49.002;8.472;2023-08-12T06:45:29;1182.10;;;932.78;;
14734;SDS011;7458;49.002;8.472;2023-08-12T06:47:55;1226.00;;;873.00;;
14734;SDS011;7458;49.002;8.472;2023-08-12T06:50:21;1190.03;;;976.10;;
14734;SDS011;7458;49.002;8.472;2023-08-12T06:52:47;1211.38;;;791.13;;
14734;SDS011;7458;49.002;8.472;2023-08-12T06:55:12;1235.75;;;894.50;;
14734;SDS011;7458;49.002;8.472;2023-08-12T06:57:38;1226.70;;;844.33;;
14734;SDS011;7458;49.002;8.472;2023-08-12T07:00:04;1228.80;;;797.47;;
14734;SDS011;7458;49.002;8.472;2023-08-12T07:02:31;1197.65;;;790.72;;
14734;SDS011;7458;49.002;8.472;2023-08-12T07:04:57;1190.90;;;982.50;;
14734;SDS011;7458;49.002;8.472;2023-08-12T07:07:23;1196.85;;;763.42;;
14734;SDS011;7458;49.002;8.472;2023-08-12T07:09:49;1215.43;;;806.78;;
14734;SDS011;7458;49.002;8.472;2023-08-12T07:12:15;1159.13;;;774.75;;
14734;SDS011;7458;49.002;8.472;2023-08-12T07:14:40;1167.22;;;886.92;;
14734;SDS011;7458;49.002;8.472;2023-08-12T07:17:06;1200.13;;;759.63;;
14734;SDS011;7458;49.002;8.472;2023-08-12T07:19:33;1204.65;;;754.15;;
14734;SDS011;7458;49.002;8.472;2023-08-12T07:21:58;1129.63;;;799.22;;
14734;SDS011;7458;49.002;8.472;2023-08-12T07:24:24;1158.93;;;779.42;;
14734;SDS011;7458;49.002;8.472;2023-08-12T07:26:51;1157.95;;;783.75;;
14734;SDS011;7458;49.002;8.472;2023-08-12T07:29:16;1138.78;;;806.65;;
14734;SDS011;7458;49.002;8.472;2023-08-12T07:31:42;1170.35;;;769.58;;
14734;SDS011;7458;49.002;8.472;2023-08-12T07:34:09;1158.72;;;858.53;;
14734;SDS011;7458;49.002;8.472;2023-08-12T07:36:38;1125.35;;;821.83;;
14734;SDS011;7458;49.002;8.472;2023-08-12T07:39:05;1113.85;;;850.00;;
14734;SDS011;7458;49.002;8.472;2023-08-12T07:41:32;1129.40;;;848.38;;
14734;SDS011;7458;49.002;8.472;2023-08-12T07:43:58;1085.50;;;867.17;;
14734;SDS011;7458;49.002;8.472;2023-08-12T07:46:24;1152.63;;;808.17;;
14734;SDS011;7458;49.002;8.472;2023-08-12T07:48:49;1182.85;;;784.58;;
14734;SDS011;7458;49.002;8.472;2023-08-12T07:51:15;1181.18;;;787.53;;
14734;SDS011;7458;49.002;8.472;2023-08-12T07:53:41;1193.30;;;785.83;;
14734;SDS011;7458;49.002;8.472;2023-08-12T07:56:07;1212.30;;;773.45;;
14734;SDS011;7458;49.002;8.472;2023-08-12T07:58:33;1149.40;;;881.45;;
14734;SDS011;7458;49.002;8.472;2023-08-12T08:00:59;1160.47;;;905.25;;
14734;SDS011;7458;49.002;8.472;2023-08-12T08:03:25;1198.38;;;808.13;;
14734;SDS011;7458;49.002;8.472;2023-08-12T08:05:50;1192.13;;;798.80;;
14734;SDS011;7458;49.002;8.472;2023-08-12T08:08:17;1167.18;;;816.83;;
14734;SDS011;7458;49.002;8.472;2023-08-12T08:10:43;1221.68;;;801.30;;
14734;SDS011;7458;49.002;8.472;2023-08-12T08:13:09;1212.38;;;796.03;;
14734;SDS011;7458;49.002;8.472;2023-08-12T08:15:35;1111.15;;;910.28;;
14734;SDS011;7458;49.002;8.472;2023-08-12T08:18:00;1209.32;;;795.35;;
14734;SDS011;7458;49.002;8.472;2023-08-12T08:20:29;1165.85;;;886.90;;
14734;SDS011;7458;49.002;8.472;2023-08-12T08:22:55;1188.03;;;817.05;;
14734;SDS011;7458;49.002;8.472;2023-08-12T08:25:21;1114.78;;;893.08;;
14734;SDS011;7458;49.002;8.472;2023-08-12T08:27:47;1199.45;;;805.72;;
14734;SDS011;7458;49.002;8.472;2023-08-12T08:30:14;1199.10;;;801.00;;
14734;SDS011;7458;49.002;8.472;2023-08-12T08:32:40;1198.00;;;827.33;;
14734;SDS011;7458;49.002;8.472;2023-08-12T08:35:06;1177.35;;;843.63;;
14734;SDS011;7458;49.002;8.472;2023-08-12T08:37:32;1122.68;;;937.72;;
14734;SDS011;7458;49.002;8.472;2023-08-12T08:39:57;1189.53;;;843.47;;
14734;SDS011;7458;49.002;8.472;2023-08-12T08:42:24;1177.53;;;857.42;;
14734;SDS011;7458;49.002;8.472;2023-08-12T08:44:52;1114.65;;;991.58;;
14734;SDS011;7458;49.002;8.472;2023-08-12T08:47:19;1126.20;;;999.88;;
14734;SDS011;7458;49.002;8.472;2023-08-12T08:49:55;1198.80;;;852.58;;
14734;SDS011;7458;49.002;8.472;2023-08-12T08:52:24;1178.97;;;856.92;;
14734;SDS011;7458;49.002;8.472;2023-08-12T08:54:51;1198.45;;;856.55;;
14734;SDS011;7458;49.002;8.472;2023-08-12T08:57:18;1121.25;;;997.17;;
14734;SDS011;7458;49.002;8.472;2023-08-12T08:59:44;1132.38;;;999.90;;
14734;SDS011;7458;49.002;8.472;2023-08-12T09:02:13;1135.28;;;999.90;;
14734;SDS011;7458;49.002;8.472;2023-08-12T09:04:43;1121.78;;;999.22;;
14734;SDS011;7458;49.002;8.472;2023-08-12T09:07:11;1117.43;;;960.13;;
14734;SDS011;7458;49.002;8.472;2023-08-12T09:09:39;1188.57;;;857.25;;
14734;SDS011;7458;49.002;8.472;2023-08-12T09:12:10;1105.25;;;986.22;;
14734;SDS011;7458;49.002;8.472;2023-08-12T09:14:39;1123.95;;;894.88;;
14734;SDS011;7458;49.002;8.472;2023-08-12T09:17:05;1115.82;;;997.15;;
14734;SDS011;7458;49.002;8.472;2023-08-12T09:19:32;1131.13;;;881.35;;
14734;SDS011;7458;49.002;8.472;2023-08-12T09:21:58;1107.95;;;988.88;;
14734;SDS011;7458;49.002;8.472;2023-08-12T09:24:24;1111.65;;;993.72;;
14734;SDS011;7458;49.002;8.472;2023-08-12T09:26:52;1117.05;;;885.90;;
14734;SDS011;7458;49.002;8.472;2023-08-12T09:29:21;1110.63;;;891.78;;
14734;SDS011;7458;49.002;8.472;2023-08-12T09:32:05;1086.38;;;938.05;;
14734;SDS011;7458;49.002;8.472;2023-08-12T09:34:52;1129.72;;;875.40;;
14734;SDS011;7458;49.002;8.472;2023-08-12T09:37:20;1153.13;;;853.17;;
14734;SDS011;7458;49.002;8.472;2023-08-12T09:39:49;1164.15;;;843.30;;
14734;SDS011;7458;49.002;8.472;2023-08-12T09:42:17;1149.07;;;855.88;;
14734;SDS011;7458;49.002;8.472;2023-08-12T09:44:43;1152.50;;;853.88;;
14734;SDS011;7458;49.002;8.472;2023-08-12T09:47:09;1088.05;;;923.72;;
14734;SDS011;7458;49.002;8.472;2023-08-12T09:49:36;1065.70;;;937.90;;
14734;SDS011;7458;49.002;8.472;2023-08-12T09:52:04;1087.20;;;875.17;;
14734;SDS011;7458;49.002;8.472;2023-08-12T09:54:32;1102.70;;;881.83;;
14734;SDS011;7458;49.002;8.472;2023-08-12T09:57:00;1112.07;;;881.63;;
14734;SDS011;7458;49.002;8.472;2023-08-12T09:59:30;1080.03;;;920.35;;
14734;SDS011;7458;49.002;8.472;2023-08-12T10:01:57;1150.28;;;999.90;;
14734;SDS011;7458;49.002;8.472;2023-08-12T10:04:26;1208.38;;;907.58;;
14734;SDS011;7458;49.002;8.472;2023-08-12T10:06:57;1206.15;;;878.58;;
14734;SDS011;7458;49.002;8.472;2023-08-12T10:09:24;1204.68;;;857.53;;
14734;SDS011;7458;49.002;8.472;2023-08-12T10:11:51;1125.50;;;912.58;;
14734;SDS011;7458;49.002;8.472;2023-08-12T10:14:18;1128.30;;;907.00;;
14734;SDS011;7458;49.002;8.472;2023-08-12T10:16:46;1119.38;;;901.28;;
14734;SDS011;7458;49.002;8.472;2023-08-12T10:19:12;1112.20;;;890.63;;
14734;SDS011;7458;49.002;8.472;2023-08-12T10:21:41;1183.78;;;795.97;;
14734;SDS011;7458;49.002;8.472;2023-08-12T10:24:09;1173.32;;;800.47;;
14734;SDS011;7458;49.002;8.472;2023-08-12T10:26:37;1196.70;;;835.38;;
14734;SDS011;7458;49.002;8.472;2023-08-12T10:29:05;1176.75;;;999.90;;
14734;SDS011;7458;49.002;8.472;2023-08-12T10:31:31;1198.70;;;999.90;;
14734;SDS011;7458;49.002;8.472;2023-08-12T10:33:57;1126.38;;;974.75;;
14734;SDS011;7458;49.002;8.472;2023-08-12T10:36:23;1174.15;;;837.00;;
14734;SDS011;7458;49.002;8.472;2023-08-12T10:38:51;1115.97;;;934.95;;
14734;SDS011;7458;49.002;8.472;2023-08-12T10:41:18;1114.82;;;926.08;;
14734;SDS011;7458;49.002;8.472;2023-08-12T10:49:02;1188.43;;;848.15;;
14734;SDS011;7458;49.002;8.472;2023-08-12T10:54:22;1213.35;;;905.75;;
14734;SDS011;7458;49.002;8.472;2023-08-12T11:12:48;1208.68;;;999.90;;
14734;SDS011;7458;49.002;8.472;2023-08-12T11:15:54;1216.55;;;999.90;;
14734;SDS011;7458;49.002;8.472;2023-08-12T11:18:15;1209.73;;;999.90;;
14734;SDS011;7458;49.002;8.472;2023-08-12T11:20:44;1215.43;;;999.90;;
14734;SDS011;7458;49.002;8.472;2023-08-12T11:23:12;1199.07;;;999.90;;
14734;SDS011;7458;49.002;8.472;2023-08-12T11:25:38;1203.45;;;999.90;;
14734;SDS011;7458;49.002;8.472;2023-08-12T11:28:09;1211.03;;;999.90;;
14734;SDS011;7458;49.002;8.472;2023-08-12T11:30:34;1219.03;;;999.90;;
14734;SDS011;7458;49.002;8.472;2023-08-12T11:33:01;1217.72;;;992.13;;
14734;SDS011;7458;49.002;8.472;2023-08-12T11:35:28;1213.38;;;965.30;;
14734;SDS011;7458;49.002;8.472;2023-08-12T11:37:55;1200.40;;;999.90;;
14734;SDS011;7458;49.002;8.472;2023-08-12T11:40:23;1169.68;;;999.90;;
14734;SDS011;7458;49.002;8.472;2023-08-12T11:42:51;1188.47;;;799.35;;
14734;SDS011;7458;49.002;8.472;2023-08-12T11:45:20;1170.30;;;777.55;;
14734;SDS011;7458;49.002;8.472;2023-08-12T11:47:51;1188.78;;;783.33;;
14734;SDS011;7458;49.002;8.472;2023-08-12T11:50:22;1111.32;;;829.25;;
14734;SDS011;7458;49.002;8.472;2023-08-12T11:52:51;1156.35;;;801.13;;
14734;SDS011;7458;49.002;8.472;2023-08-12T11:55:18;1087.10;;;853.47;;
14734;SDS011;7458;49.002;8.472;2023-08-12T11:57:44;1080.75;;;862.42;;
14734;SDS011;7458;49.002;8.472;2023-08-12T12:00:11;1099.00;;;856.38;;
14734;SDS011;7458;49.002;8.472;2023-08-12T12:03:16;1133.60;;;809.45;;
14734;SDS011;7458;49.002;8.472;2023-08-12T12:05:36;1096.97;;;848.22;;
14734;SDS011;7458;49.002;8.472;2023-08-12T12:08:01;1163.97;;;789.70;;
14734;SDS011;7458;49.002;8.472;2023-08-12T12:10:31;1104.82;;;852.00;;
14734;SDS011;7458;49.002;8.472;2023-08-12T12:12:58;1161.55;;;790.88;;
14734;SDS011;7458;49.002;8.472;2023-08-12T12:15:25;1101.13;;;851.88;;
14734;SDS011;7458;49.002;8.472;2023-08-12T12:17:52;1099.43;;;867.95;;
14734;SDS011;7458;49.002;8.472;2023-08-12T12:20:18;1095.85;;;857.28;;
14734;SDS011;7458;49.002;8.472;2023-08-12T12:22:46;1164.32;;;786.58;;
14734;SDS011;7458;49.002;8.472;2023-08-12T12:25:13;1161.85;;;790.33;;
14734;SDS011;7458;49.002;8.472;2023-08-12T12:27:42;1104.68;;;838.97;;
14734;SDS011;7458;49.002;8.472;2023-08-12T12:30:11;1162.78;;;784.53;;
14734;SDS011;7458;49.002;8.472;2023-08-12T12:32:39;1165.25;;;780.55;;
14734;SDS011;7458;49.002;8.472;2023-08-12T12:35:05;1169.90;;;783.88;;
14734;SDS011;7458;49.002;8.472;2023-08-12T12:37:32;1168.95;;;778.72;;
14734;SDS011;7458;49.002;8.472;2023-08-12T12:39:59;1157.85;;;791.17;;
14734;SDS011;7458;49.002;8.472;2023-08-12T12:42:25;1193.22;;;833.10;;
14734;SDS011;7458;49.002;8.472;2023-08-12T12:44:50;1127.47;;;898.03;;
14734;SDS011;7458;49.002;8.472;2023-08-12T12:47:16;1163.90;;;912.03;;
14734;SDS011;7458;49.002;8.472;2023-08-12T12:49:43;1156.35;;;805.38;;
14734;SDS011;7458;49.002;8.472;2023-08-12T12:52:10;1139.07;;;812.72;;
14734;SDS011;7458;49.002;8.472;2023-08-12T12:54:36;1133.13;;;827.97;;
14734;SDS011;7458;49.002;8.472;2023-08-12T12:57:02;1126.13;;;835.65;;
14734;SDS011;7458;49.002;8.472;2023-08-12T12:59:29;1061.28;;;909.85;;
14734;SDS011;7458;49.002;8.472;2023-08-12T13:01:55;1095.15;;;855.88;;
14734;SDS011;7458;49.002;8.472;2023-08-12T13:04:21;1051.90;;;920.03;;
14734;SDS011;7458;49.002;8.472;2023-08-12T13:06:47;1097.78;;;850.20;;
14734;SDS011;7458;49.002;8.472;2023-08-12T13:09:13;1107.88;;;844.20;;
14734;SDS011;7458;49.002;8.472;2023-08-12T13:11:39;1099.68;;;839.85;;
14734;SDS011;7458;49.002;8.472;2023-08-12T13:14:04;1046.25;;;929.63;;
14734;SDS011;7458;49.002;8.472;2023-08-12T13:16:30;1083.43;;;856.80;;
14734;SDS011;7458;49.002;8.472;2023-08-12T13:18:56;1081.53;;;853.35;;
14734;SDS011;7458;49.002;8.472;2023-08-12T13:21:24;1077.93;;;853.22;;
14734;SDS011;7458;49.002;8.472;2023-08-12T13:23:51;1096.63;;;856.10;;
14734;SDS011;7458;49.002;8.472;2023-08-12T13:26:17;1092.60;;;861.88;;
14734;SDS011;7458;49.002;8.472;2023-08-12T13:28:43;1067.03;;;867.90;;
14734;SDS011;7458;49.002;8.472;2023-08-12T13:31:09;1039.45;;;925.72;;
14734;SDS011;7458;49.002;8.472;2023-08-12T13:33:35;1040.20;;;876.60;;
14734;SDS011;7458;49.002;8.472;2023-08-12T13:36:01;1036.78;;;881.22;;
14734;SDS011;7458;49.002;8.472;2023-08-12T13:38:27;1063.00;;;874.95;;
14734;SDS011;7458;49.002;8.472;2023-08-12T13:40:53;1053.57;;;939.25;;
14734;SDS011;7458;49.002;8.472;2023-08-12T13:43:18;1059.97;;;887.40;;
14734;SDS011;7458;49.002;8.472;2023-08-12T13:45:44;1062.30;;;881.80;;
14734;SDS011;7458;49.002;8.472;2023-08-12T13:48:10;1052.78;;;887.10;;
14734;SDS011;7458;49.002;8.472;2023-08-12T13:50:36;1056.18;;;941.67;;
14734;SDS011;7458;49.002;8.472;2023-08-12T13:53:01;1045.28;;;901.17;;
14734;SDS011;7458;49.002;8.472;2023-08-12T13:55:27;1042.25;;;915.40;;
14734;SDS011;7458;49.002;8.472;2023-08-12T13:57:53;1094.15;;;978.60;;
14734;SDS011;7458;49.002;8.472;2023-08-12T14:00:19;1088.93;;;973.13;;
14734;SDS011;7458;49.002;8.472;2023-08-12T14:02:45;1094.07;;;978.88;;
14734;SDS011;7458;49.002;8.472;2023-08-12T14:05:13;1068.53;;;953.58;;
14734;SDS011;7458;49.002;8.472;2023-08-12T14:07:42;1095.50;;;980.58;;
14734;SDS011;7458;49.002;8.472;2023-08-12T14:10:08;1099.65;;;984.05;;
14734;SDS011;7458;49.002;8.472;2023-08-12T14:12:34;1064.85;;;950.97;;
14734;SDS011;7458;49.002;8.472;2023-08-12T14:15:00;1062.00;;;948.35;;
14734;SDS011;7458;49.002;8.472;2023-08-12T14:17:27;1046.78;;;933.55;;
14734;SDS011;7458;49.002;8.472;2023-08-12T14:19:53;1080.18;;;965.28;;